Aérodrome :
LOGIN :

S'inscrire | Disclaimer

   EN    FR    IT 

 










Légende :    VFR   VFR Marginal   IFR   IFR Intensif   IFR Très Intensif
Visi : 
Plafond : 
>= 8 km
>= 3000ft
5 à 8 km
1000 à 3000 ft
1500m à 5 km
500 à 1000 ft
800 à 1500m
200 à 500 ft
< 800m
< 200 ft
Symboles :   Orages  Brouillard  Fortes neiges  Fortes précipitations  Vent > 20 kt
SIGMETs :   Divers  Orages  Givrage  Turbulence  Onde Orograph.  Cendres Volcan.






- Altitude de l'aérodrome : 313 ft
- Code IATA : LEH


LFOH - Le Havre Octeville

DERNIER METAR :
  • 281230Z AUTO 07009KT 030V110 8000 FEW031 21/12 Q1030

METARs EXPIRÉS :
  • 281200Z AUTO 05010KT 020V080 8000 FEW032 21/12 Q1030
  • 281130Z AUTO 07008KT 020V130 8000 NSC 20/12 Q1030
  • 281100Z AUTO 08008KT 040V120 6000 NSC 19/10 Q1031
  • 281030Z AUTO 10009KT 7000 FEW027 19/10 Q1031
  • 281000Z AUTO 08011KT 7000 NSC 18/11 Q1032

Prévision TAF périmée.
ATIS : +33 2 35 54 64 93



MET'MAP, la Météo Aéronautique d'un coup d'oeil ! - Copyright ORBIFLY Décembre 2007 - Disclaimer

ORBIFLY MET'MAP TEAM :

Programmation & Développement : Alexandra Zaïnal
Sur une idée originale de : Baudouin d'Aumeries
Assistance à la programmation : Marc-Olivier Méhu
Soutien technique & logistique : Manuel Goepfert

Contact : metmap@orbifly.com




SOURCES & CREDITS :

   NOAA